Time;durP1;ratioP1;P1;durP2;ratioP2;P2;SDS_P1;SDS_P2;PMS_P1;PMS_P2;Temp;Humidity;BMP_temperature;BMP_pressure;BME280_temperature;BME280_humidity;BME280_pressure;Samples;Min_cycle;Max_cycle;Signal;HPM_P1;HPM_P2
2023/05/26 00:01:47;;;;;;;12.00;6.80;;;;;;;10.33;100.00;101386.94;5047722;28;20212;-80
2023/05/26 00:04:17;;;;;;;10.40;6.20;;;;;;;10.17;100.00;101385.53;5046268;28;20256;-78
2023/05/26 00:06:52;;;;;;;9.13;6.87;;;;;;;10.03;100.00;101384.22;5048127;28;20267;-75
2023/05/26 00:09:20;;;;;;;11.07;7.07;;;;;;;9.91;100.00;101381.16;5048158;28;20201;-75
2023/05/26 00:11:47;;;;;;;12.20;6.90;;;;;;;9.84;100.00;101388.00;5046027;28;20710;-74
2023/05/26 00:14:14;;;;;;;13.63;7.40;;;;;;;9.83;100.00;101390.59;5038750;28;20209;-73
2023/05/26 00:16:42;;;;;;;11.07;6.80;;;;;;;9.78;100.00;101403.69;5044578;28;20216;-71
2023/05/26 00:19:08;;;;;;;10.83;6.97;;;;;;;9.71;100.00;101394.66;5030508;28;20316;-72
2023/05/26 00:21:39;;;;;;;13.30;7.67;;;;;;;9.71;100.00;101394.66;5045671;28;20196;-71
2023/05/26 00:24:05;;;;;;;12.13;7.10;;;;;;;9.63;100.00;101392.63;5040959;28;20200;-71
2023/05/26 00:26:32;;;;;;;15.03;7.67;;;;;;;9.60;100.00;101393.38;5042446;28;20227;-70
2023/05/26 00:28:59;;;;;;;10.83;7.10;;;;;;;9.66;100.00;101392.72;5045988;28;20279;-71
2023/05/26 00:31:25;;;;;;;14.40;7.43;;;;;;;9.67;100.00;101384.84;5044722;28;20199;-71
2023/05/26 00:33:51;;;;;;;13.80;6.90;;;;;;;9.75;100.00;101379.78;5026320;28;20192;-71
2023/05/26 00:36:18;;;;;;;12.17;6.90;;;;;;;9.73;100.00;101387.66;5047536;28;20230;-70
2023/05/26 00:38:44;;;;;;;13.43;7.70;;;;;;;9.93;100.00;101377.72;5047346;28;20286;-70
2023/05/26 00:41:11;;;;;;;10.90;7.50;;;;;;;9.97;100.00;101374.31;5041613;28;20303;-70
2023/05/26 00:43:37;;;;;;;13.53;7.10;;;;;;;10.03;100.00;101378.94;5042624;28;20200;-71
2023/05/26 00:46:04;;;;;;;12.30;7.20;;;;;;;9.94;100.00;101378.59;5044327;28;20245;-72
2023/05/26 00:48:30;;;;;;;12.57;7.30;;;;;;;9.85;100.00;101373.03;5042108;28;20284;-70
2023/05/26 00:50:57;;;;;;;14.07;6.97;;;;;;;9.78;100.00;101379.88;5040965;28;20656;-70
2023/05/26 00:53:23;;;;;;;14.00;7.50;;;;;;;9.66;100.00;101377.75;5045012;28;20280;-70
2023/05/26 00:55:53;;;;;;;13.43;7.87;;;;;;;9.59;100.00;101378.34;5035587;28;20761;-71
2023/05/26 00:58:20;;;;;;;13.03;7.23;;;;;;;9.62;100.00;101370.56;5041897;28;20208;-70
2023/05/26 01:00:49;;;;;;;10.30;7.40;;;;;;;9.64;100.00;101374.16;5040145;28;20226;-71
2023/05/26 01:03:16;;;;;;;12.73;7.20;;;;;;;9.53;100.00;101366.69;5046007;28;20671;-70
2023/05/26 01:05:43;;;;;;;14.67;7.37;;;;;;;9.57;100.00;101385.34;5047260;28;20716;-70
2023/05/26 01:08:10;;;;;;;10.17;6.40;;;;;;;9.54;100.00;101374.66;5037701;28;20290;-70
2023/05/26 01:10:36;;;;;;;11.17;7.10;;;;;;;9.43;100.00;101373.41;5046981;28;20194;-70
2023/05/26 01:13:15;;;;;;;10.73;7.30;;;;;;;9.34;100.00;101367.81;5040285;28;20226;-71
2023/05/26 01:15:48;;;;;;;10.93;6.83;;;;;;;9.29;100.00;101367.69;5044609;28;20585;-71
2023/05/26 01:18:31;;;;;;;13.53;7.23;;;;;;;9.24;100.00;101374.56;5046191;28;20666;-72
2023/05/26 01:21:10;;;;;;;11.93;6.90;;;;;;;9.24;100.00;101369.28;5040178;28;20262;-71
2023/05/26 01:23:59;;;;;;;13.30;6.83;;;;;;;9.36;100.00;101366.13;5042980;28;20815;-70
2023/05/26 01:26:47;;;;;;;13.23;6.97;;;;;;;9.33;100.00;101359.00;5048182;28;20229;-71
2023/05/26 01:29:20;;;;;;;11.53;6.83;;;;;;;9.27;100.00;101372.00;5050212;28;20199;-71
2023/05/26 01:31:46;;;;;;;11.47;6.87;;;;;;;9.21;100.00;101373.56;5050290;28;20286;-70
2023/05/26 01:34:13;;;;;;;9.57;6.83;;;;;;;9.14;100.00;101371.50;5047514;28;20207;-70
2023/05/26 01:36:39;;;;;;;11.43;6.77;;;;;;;9.04;100.00;101368.56;5050950;28;20223;-71
2023/05/26 01:39:07;;;;;;;11.60;6.70;;;;;;;8.96;100.00;101375.31;5043048;28;20508;-70
2023/05/26 01:41:48;;;;;;;9.50;6.60;;;;;;;8.98;100.00;101376.28;5047313;28;20202;-70
2023/05/26 01:44:31;;;;;;;9.00;6.67;;;;;;;8.92;100.00;101372.53;5049141;28;20192;-70
2023/05/26 01:47:00;;;;;;;10.27;6.63;;;;;;;8.86;100.00;101375.84;5045116;28;20214;-70
2023/05/26 01:49:32;;;;;;;11.83;7.57;;;;;;;8.86;100.00;101370.56;5046109;28;20199;-70
2023/05/26 01:52:04;;;;;;;11.57;7.37;;;;;;;8.80;100.00;101362.38;5040605;28;20233;-70
2023/05/26 01:54:37;;;;;;;11.60;6.93;;;;;;;8.78;100.00;101361.44;5022303;28;20285;-71
2023/05/26 01:57:06;;;;;;;10.97;6.60;;;;;;;8.69;100.00;101369.94;5044496;28;20236;-70
2023/05/26 01:59:33;;;;;;;9.47;6.87;;;;;;;8.68;100.00;101359.31;5043318;28;20265;-70
2023/05/26 02:01:59;;;;;;;12.43;7.03;;;;;;;8.65;100.00;101364.47;5044014;28;20200;-71
2023/05/26 02:04:26;;;;;;;12.33;7.53;;;;;;;8.67;100.00;101365.44;5035201;28;20651;-70
2023/05/26 02:06:54;;;;;;;12.00;7.10;;;;;;;8.62;100.00;101365.28;5018089;28;20213;-71
2023/05/26 02:09:23;;;;;;;10.20;7.03;;;;;;;8.59;100.00;101365.16;5042916;28;20250;-70
2023/05/26 02:11:49;;;;;;;13.33;7.10;;;;;;;8.57;100.00;101360.66;5041272;28;20667;-70
2023/05/26 02:14:15;;;;;;;10.43;6.67;;;;;;;8.52;100.00;101363.16;5026905;28;20217;-70
2023/05/26 02:16:44;;;;;;;11.37;7.07;;;;;;;8.47;100.00;101364.72;5044525;28;20215;-70
2023/05/26 02:19:10;;;;;;;16.37;6.50;;;;;;;8.46;100.00;101363.81;5046579;28;20745;-71
2023/05/26 02:21:37;;;;;;;11.70;7.57;;;;;;;8.43;100.00;101361.06;5045022;28;20227;-71
2023/05/26 02:24:03;;;;;;;10.60;7.10;;;;;;;8.45;100.00;101355.84;5047983;28;20195;-70
2023/05/26 02:26:30;;;;;;;10.03;7.27;;;;;;;8.44;100.00;101359.31;5042645;28;20219;-70
2023/05/26 02:28:56;;;;;;;13.43;7.53;;;;;;;8.41;100.00;101360.13;5041469;28;20203;-70
2023/05/26 02:31:23;;;;;;;14.97;6.97;;;;;;;8.38;100.00;101361.72;5048022;28;20244;-73
2023/05/26 02:33:50;;;;;;;12.70;6.93;;;;;;;8.34;100.00;101362.44;5040913;28;20200;-70
2023/05/26 02:36:17;;;;;;;10.00;6.60;;;;;;;8.29;100.00;101356.94;5041238;28;20850;-70
2023/05/26 02:38:44;;;;;;;10.83;7.27;;;;;;;8.26;100.00;101358.56;5054096;28;20195;-70
2023/05/26 02:41:10;;;;;;;13.50;7.20;;;;;;;8.23;100.00;101359.34;5043546;28;20229;-70
2023/05/26 02:43:38;;;;;;;13.10;7.50;;;;;;;8.24;100.00;101354.97;5031088;28;20207;-70
2023/05/26 02:46:05;;;;;;;10.87;7.10;;;;;;;8.22;100.00;101364.59;5042899;28;20225;-70
2023/05/26 02:48:31;;;;;;;11.70;7.20;;;;;;;8.21;100.00;101360.16;5047569;28;20553;-70
2023/05/26 02:50:59;;;;;;;10.30;6.80;;;;;;;8.17;100.00;101357.38;5047331;28;20191;-71
2023/05/26 02:53:25;;;;;;;10.80;6.97;;;;;;;8.17;100.00;101359.13;5043579;28;20210;-70
2023/05/26 02:55:52;;;;;;;13.50;7.47;;;;;;;8.14;100.00;101365.19;5043432;28;20233;-71
2023/05/26 02:58:19;;;;;;;11.80;6.90;;;;;;;8.11;100.00;101365.06;5046961;28;20200;-70
2023/05/26 03:00:45;;;;;;;13.33;7.13;;;;;;;8.07;100.00;101357.88;5043433;28;20708;-70
2023/05/26 03:03:12;;;;;;;9.87;7.23;;;;;;;8.03;100.00;101355.06;5042121;28;20484;-70
2023/05/26 03:05:39;;;;;;;10.47;7.30;;;;;;;8.01;100.00;101362.03;5040844;28;20221;-70
2023/05/26 03:08:05;;;;;;;10.83;7.67;;;;;;;7.97;100.00;101347.78;5043379;28;20717;-71
2023/05/26 03:10:33;;;;;;;12.73;7.57;;;;;;;7.99;100.00;101356.66;5043940;28;20697;-70
2023/05/26 03:12:59;;;;;;;13.07;7.50;;;;;;;8.08;100.00;101351.78;5050689;28;20207;-70
2023/05/26 03:15:36;;;;;;;11.83;7.60;;;;;;;8.14;100.00;101353.75;5020324;28;20741;-71
2023/05/26 03:18:03;;;;;;;12.03;7.80;;;;;;;8.13;100.00;101346.66;5055739;28;20198;-69
2023/05/26 03:20:29;;;;;;;13.17;7.90;;;;;;;8.10;100.00;101347.44;5030344;28;20757;-70
2023/05/26 03:22:56;;;;;;;13.30;7.37;;;;;;;8.11;100.00;101349.25;5040890;28;20196;-72
2023/05/26 03:25:22;;;;;;;11.77;7.23;;;;;;;8.09;100.00;101347.38;5048886;28;20221;-70
2023/05/26 03:27:48;;;;;;;11.53;7.43;;;;;;;8.05;100.00;101349.00;5048391;28;20546;-71
2023/05/26 03:30:15;;;;;;;11.83;7.93;;;;;;;8.03;100.00;101348.06;5045038;28;20208;-70
2023/05/26 03:32:41;;;;;;;12.87;8.13;;;;;;;8.20;100.00;101348.69;5039965;28;20580;-70
2023/05/26 03:35:08;;;;;;;11.47;7.93;;;;;;;8.38;100.00;101354.69;5029202;28;20350;-70
2023/05/26 03:37:35;;;;;;;17.70;8.23;;;;;;;8.45;100.00;101361.13;5048977;28;20695;-70
2023/05/26 03:40:02;;;;;;;17.83;8.47;;;;;;;8.54;100.00;101357.91;5045995;28;20226;-71
2023/05/26 03:42:28;;;;;;;16.47;8.53;;;;;;;8.47;100.00;101362.06;5041279;28;20228;-70
2023/05/26 03:44:55;;;;;;;16.03;8.73;;;;;;;8.47;100.00;101357.69;5040050;28;20686;-70
2023/05/26 03:47:21;;;;;;;12.27;8.40;;;;;;;8.60;100.00;101359.03;5036741;28;20211;-71
2023/05/26 03:49:48;;;;;;;14.53;8.30;;;;;;;8.70;100.00;101363.81;5038867;28;20286;-72
2023/05/26 03:52:14;;;;;;;15.27;8.47;;;;;;;8.83;100.00;101357.25;5033583;28;20211;-71
2023/05/26 03:54:41;;;;;;;14.07;8.37;;;;;;;8.94;100.00;101358.53;5046609;28;20199;-70
2023/05/26 03:57:08;;;;;;;14.93;8.60;;;;;;;9.02;100.00;101359.69;5039763;28;20261;-71
2023/05/26 03:59:34;;;;;;;13.63;8.10;;;;;;;9.13;100.00;101357.41;5035951;28;20203;-70
2023/05/26 04:02:01;;;;;;;16.57;8.40;;;;;;;9.35;100.00;101362.59;5044498;28;20226;-71
2023/05/26 04:04:27;;;;;;;15.67;8.43;;;;;;;9.70;100.00;101350.53;5047049;28;20274;-70
2023/05/26 04:06:55;;;;;;;15.70;7.80;;;;;;;9.80;100.00;101351.72;5043647;28;20597;-71
2023/05/26 04:09:21;;;;;;;13.93;8.30;;;;;;;9.89;100.00;101354.66;5047032;28;20540;-71
2023/05/26 04:11:47;;;;;;;12.57;8.10;;;;;;;9.91;100.00;101360.88;5025369;28;20201;-70
2023/05/26 04:14:14;;;;;;;13.50;7.83;;;;;;;9.97;100.00;101362.81;5038531;28;20598;-70
2023/05/26 04:16:40;;;;;;;14.87;7.47;;;;;;;10.01;100.00;101375.34;5048769;28;20302;-71
2023/05/26 04:19:07;;;;;;;12.90;7.73;;;;;;;10.03;100.00;101371.00;5041111;28;20195;-70
2023/05/26 04:21:34;;;;;;;16.07;8.63;;;;;;;10.04;100.00;101375.44;5031659;28;20223;-70
2023/05/26 04:24:01;;;;;;;13.30;8.60;;;;;;;10.12;100.00;101376.56;5021600;28;20208;-71
2023/05/26 04:26:28;;;;;;;14.73;8.23;;;;;;;10.12;100.00;101373.00;5033836;28;20223;-70
2023/05/26 04:28:56;;;;;;;12.37;7.83;;;;;;;10.14;100.00;101373.97;5045899;28;20214;-70
2023/05/26 04:31:23;;;;;;;13.57;7.70;;;;;;;10.30;100.00;101365.66;5044066;28;20230;-70
2023/05/26 04:33:50;;;;;;;16.50;8.13;;;;;;;10.39;100.00;101362.38;5042639;28;20651;-70
2023/05/26 04:36:17;;;;;;;17.67;7.97;;;;;;;10.43;100.00;101365.19;5048126;28;20258;-70
2023/05/26 04:38:47;;;;;;;12.80;7.80;;;;;;;10.62;100.00;101363.97;5036241;28;20575;-71
2023/05/26 04:41:15;;;;;;;14.30;8.20;;;;;;;10.71;100.00;101369.50;5039283;28;20435;-70
2023/05/26 04:43:43;;;;;;;11.90;7.90;;;;;;;10.81;100.00;101366.28;5035667;28;20211;-71
2023/05/26 04:46:13;;;;;;;13.13;7.23;;;;;;;10.88;100.00;101364.72;5046819;28;20228;-70
2023/05/26 04:48:39;;;;;;;13.03;7.87;;;;;;;11.05;100.00;101375.75;5048519;28;20227;-71
2023/05/26 04:51:07;;;;;;;13.70;7.97;;;;;;;11.14;100.00;101370.69;5053502;28;20230;-70
2023/05/26 04:53:36;;;;;;;12.63;8.10;;;;;;;11.24;100.00;101367.47;5044404;28;20205;-71
2023/05/26 04:56:03;;;;;;;13.43;7.87;;;;;;;11.39;100.00;101366.94;5042857;28;20286;-70
2023/05/26 04:58:31;;;;;;;12.97;7.40;;;;;;;11.49;100.00;101371.63;5043613;28;20209;-70
2023/05/26 05:00:58;;;;;;;15.30;7.30;;;;;;;11.54;100.00;101375.28;5047212;28;20699;-70
2023/05/26 05:03:26;;;;;;;12.13;7.93;;;;;;;11.65;100.00;101375.56;5023828;28;20196;-70
2023/05/26 05:05:53;;;;;;;13.40;8.17;;;;;;;11.69;100.00;101372.13;5044467;28;20221;-70
2023/05/26 05:08:19;;;;;;;18.50;7.63;;;;;;;11.81;99.98;101376.00;5050248;28;20198;-70
2023/05/26 05:10:46;;;;;;;11.30;6.93;;;;;;;11.91;99.11;101380.66;5048412;28;20194;-70
2023/05/26 05:13:12;;;;;;;15.73;8.23;;;;;;;11.98;98.44;101387.00;5049643;28;20204;-74
2023/05/26 05:15:38;;;;;;;13.03;7.17;;;;;;;12.09;97.99;101382.88;5049611;28;20216;-72
2023/05/26 05:18:05;;;;;;;15.60;7.17;;;;;;;12.14;97.80;101383.88;5049613;28;20204;-73
2023/05/26 05:20:31;;;;;;;18.20;7.27;;;;;;;12.24;96.87;101391.19;5034839;28;20222;-73
2023/05/26 05:22:58;;;;;;;16.17;7.60;;;;;;;12.33;96.61;101386.94;5049489;28;20666;-73
2023/05/26 05:25:24;;;;;;;12.03;7.20;;;;;;;12.42;95.74;101395.13;5049985;28;20232;-77
2023/05/26 05:27:51;;;;;;;11.67;7.20;;;;;;;12.49;94.81;101397.06;5046637;28;20236;-80
2023/05/26 05:30:19;;;;;;;14.70;7.10;;;;;;;12.56;94.67;101398.97;5046668;28;20745;-77
2023/05/26 05:32:45;;;;;;;11.80;7.30;;;;;;;12.63;94.00;101394.69;5048722;28;20247;-78
2023/05/26 05:35:12;;;;;;;10.57;7.50;;;;;;;12.72;93.33;101402.84;5048008;28;20202;-80
2023/05/26 05:37:38;;;;;;;11.33;6.90;;;;;;;12.79;93.52;101400.34;5048761;28;20662;-78
2023/05/26 05:40:05;;;;;;;12.07;7.00;;;;;;;12.91;92.03;101401.47;5048262;28;20203;-78
2023/05/26 05:42:31;;;;;;;10.57;7.00;;;;;;;13.08;91.46;101400.03;5049327;28;20230;-76
2023/05/26 05:44:58;;;;;;;13.03;6.97;;;;;;;13.13;91.37;101403.66;5047333;28;20660;-75
2023/05/26 05:47:27;;;;;;;10.23;6.40;;;;;;;13.16;90.43;101401.97;5048961;28;20256;-76
2023/05/26 05:49:53;;;;;;;13.67;7.03;;;;;;;13.53;89.64;101404.44;5047401;28;20238;-75
2023/05/26 05:52:20;;;;;;;12.80;6.80;;;;;;;13.80;87.65;101405.81;5048786;28;20200;-75
2023/05/26 05:54:46;;;;;;;11.13;6.60;;;;;;;13.85;87.50;101400.56;5047434;28;20293;-72
2023/05/26 05:57:13;;;;;;;13.47;6.83;;;;;;;13.97;86.00;101405.16;5038861;28;20230;-72
2023/05/26 05:59:39;;;;;;;11.27;6.93;;;;;;;14.02;86.22;101408.84;5020212;28;20194;-71
2023/05/26 06:02:05;;;;;;;10.97;6.73;;;;;;;14.05;86.71;101407.13;5020760;28;20225;-72
2023/05/26 06:04:32;;;;;;;11.43;6.90;;;;;;;14.06;85.54;101403.56;5046807;28;20225;-71
2023/05/26 06:06:58;;;;;;;10.77;6.60;;;;;;;14.17;85.38;101411.72;5042025;28;20731;-69
2023/05/26 06:09:25;;;;;;;15.50;7.03;;;;;;;14.22;85.47;101409.13;5042512;28;20228;-68
2023/05/26 06:11:52;;;;;;;13.70;6.93;;;;;;;14.25;84.91;101420.72;5049102;28;20737;-69
2023/05/26 06:14:18;;;;;;;11.67;6.73;;;;;;;14.39;84.38;101427.13;5046577;28;20666;-67
2023/05/26 06:16:44;;;;;;;13.03;6.80;;;;;;;14.58;83.01;101430.13;5051052;28;20222;-68
2023/05/26 06:19:11;;;;;;;12.80;6.87;;;;;;;14.68;83.06;101429.34;5049583;28;20630;-67
2023/05/26 06:21:37;;;;;;;10.43;6.40;;;;;;;14.68;82.83;101435.59;5037872;28;20219;-68
2023/05/26 06:24:04;;;;;;;12.77;6.57;;;;;;;14.63;83.91;101426.63;5038458;28;20219;-68
2023/05/26 06:26:30;;;;;;;14.13;7.13;;;;;;;14.57;83.95;101428.31;5051272;28;20226;-70
2023/05/26 06:28:56;;;;;;;15.27;6.23;;;;;;;14.65;83.96;101426.66;5048683;28;20268;-69
2023/05/26 06:31:23;;;;;;;14.83;6.30;;;;;;;14.83;83.49;101431.34;5025710;28;20191;-71
2023/05/26 06:33:49;;;;;;;15.43;6.57;;;;;;;14.94;82.67;101441.25;5045864;28;20241;-69
2023/05/26 06:36:16;;;;;;;10.67;6.27;;;;;;;14.91;81.72;101435.91;5035164;28;20219;-70
2023/05/26 06:38:42;;;;;;;11.53;6.90;;;;;;;15.05;82.30;101430.72;5047020;28;20697;-71
2023/05/26 06:41:08;;;;;;;11.53;6.23;;;;;;;15.16;82.09;101438.84;5040176;28;20226;-70
2023/05/26 06:43:35;;;;;;;10.67;6.17;;;;;;;15.31;81.20;101439.03;5049307;28;20199;-70
2023/05/26 06:46:01;;;;;;;11.90;6.50;;;;;;;15.34;81.01;101437.28;5043291;28;20357;-70
2023/05/26 06:48:28;;;;;;;13.37;6.13;;;;;;;15.36;81.27;101443.53;5045239;28;20207;-70
2023/05/26 06:50:54;;;;;;;11.60;5.80;;;;;;;15.54;79.19;101436.56;5043425;28;20197;-67
2023/05/26 06:53:20;;;;;;;12.27;6.27;;;;;;;15.56;78.31;101437.47;5045703;28;20203;-69
2023/05/26 06:55:47;;;;;;;12.37;6.60;;;;;;;15.82;78.26;101441.34;5045043;28;20226;-69
2023/05/26 06:58:13;;;;;;;11.10;6.37;;;;;;;16.13;76.60;101441.59;5041596;28;20202;-68
2023/05/26 07:00:55;;;;;;;10.67;6.40;;;;;;;17.54;70.54;101439.59;5038731;28;20532;-67
2023/05/26 07:03:21;;;;;;;14.57;6.03;;;;;;;19.16;62.37;101430.44;5038597;28;20298;-67
2023/05/26 07:05:48;;;;;;;10.20;5.63;;;;;;;20.87;54.17;101438.91;5041057;28;20297;-68
2023/05/26 07:08:23;;;;;;;11.60;5.90;;;;;;;22.35;46.60;101435.81;5044829;28;20288;-68
2023/05/26 07:10:50;;;;;;;9.40;5.80;;;;;;;23.35;44.05;101439.19;5043204;28;20195;-67
2023/05/26 07:13:16;;;;;;;9.67;5.53;;;;;;;24.94;39.23;101454.13;5038519;28;20204;-68
2023/05/26 07:15:43;;;;;;;9.37;5.47;;;;;;;25.24;37.44;101447.84;5041403;28;20214;-67
2023/05/26 07:18:10;;;;;;;11.33;5.70;;;;;;;25.45;36.68;101454.41;5035844;28;20203;-68
2023/05/26 07:20:37;;;;;;;10.73;5.80;;;;;;;25.50;35.96;101451.53;5041534;28;20265;-68
2023/05/26 07:23:04;;;;;;;11.63;5.67;;;;;;;25.82;35.57;101451.44;5036597;28;20195;-69
2023/05/26 07:25:30;;;;;;;11.50;5.40;;;;;;;25.59;36.11;101453.97;5020785;28;20222;-68
2023/05/26 07:27:57;;;;;;;8.77;5.40;;;;;;;25.75;36.04;101444.44;5039788;28;20582;-69
2023/05/26 07:30:23;;;;;;;9.27;5.30;;;;;;;25.99;35.65;101452.69;5036586;28;20199;-69
2023/05/26 07:32:50;;;;;;;9.67;5.40;;;;;;;25.30;36.44;101463.91;5037793;28;20191;-67
2023/05/26 07:35:17;;;;;;;10.97;4.97;;;;;;;25.81;35.55;101451.50;5044729;28;20238;-68
2023/05/26 07:37:43;;;;;;;12.03;5.07;;;;;;;26.05;34.80;101442.53;5030571;28;20587;-68
2023/05/26 07:40:10;;;;;;;11.20;5.50;;;;;;;25.44;35.78;101449.03;5043922;28;20201;-68
2023/05/26 07:42:36;;;;;;;10.67;5.80;;;;;;;24.68;37.45;101453.03;5048921;28;20215;-69
2023/05/26 07:45:03;;;;;;;10.43;5.60;;;;;;;24.51;37.55;101457.16;5042879;28;20203;-69
2023/05/26 07:47:31;;;;;;;11.57;5.03;;;;;;;25.21;37.43;101450.59;5043726;28;20222;-68
2023/05/26 07:49:59;;;;;;;14.70;5.73;;;;;;;24.25;38.23;101453.25;5048836;28;20220;-68
2023/05/26 07:52:26;;;;;;;10.37;5.80;;;;;;;24.89;37.59;101453.38;5043491;28;20214;-68
2023/05/26 07:54:53;;;;;;;14.33;6.10;;;;;;;24.16;38.29;101449.91;5043997;28;20194;-68
2023/05/26 07:57:22;;;;;;;11.30;5.50;;;;;;;23.55;40.47;101445.94;5046416;28;20213;-70
2023/05/26 07:59:55;;;;;;;10.20;5.57;;;;;;;23.73;40.57;101443.75;5044579;28;20265;-71
2023/05/26 08:02:22;;;;;;;10.97;5.93;;;;;;;23.80;40.07;101438.19;5038646;28;20604;-70
2023/05/26 08:04:48;;;;;;;14.43;5.63;;;;;;;23.48;40.48;101442.50;5038468;28;20261;-69
2023/05/26 08:07:14;;;;;;;12.17;5.80;;;;;;;23.54;41.07;101445.06;5041304;28;20601;-69
2023/05/26 08:09:44;;;;;;;11.47;5.50;;;;;;;23.45;40.65;101453.41;5038795;28;20194;-70
2023/05/26 08:12:10;;;;;;;9.97;5.40;;;;;;;22.59;43.18;101437.19;5045869;28;20279;-70
2023/05/26 08:14:37;;;;;;;9.83;5.13;;;;;;;22.71;43.17;101447.72;5033747;28;20190;-69
2023/05/26 08:17:03;;;;;;;9.37;5.20;;;;;;;21.97;44.28;101447.25;5033731;28;20615;-69
2023/05/26 08:19:30;;;;;;;11.43;5.63;;;;;;;21.50;45.90;101443.47;5038029;28;20203;-69
2023/05/26 08:21:56;;;;;;;11.00;5.03;;;;;;;22.18;45.88;101438.81;5037950;28;20306;-69
2023/05/26 08:24:24;;;;;;;11.80;5.47;;;;;;;22.57;43.37;101436.31;5046346;28;20206;-70
2023/05/26 08:26:51;;;;;;;9.83;4.90;;;;;;;22.41;44.69;101438.41;5045075;28;20232;-70
2023/05/26 08:29:17;;;;;;;11.67;5.50;;;;;;;21.63;45.85;101446.91;5046809;28;20681;-69
2023/05/26 08:31:44;;;;;;;8.27;4.80;;;;;;;21.71;46.65;101428.81;5043100;28;20302;-71
2023/05/26 08:34:10;;;;;;;13.80;5.63;;;;;;;21.39;46.59;101434.66;5040109;28;20204;-70
2023/05/26 08:36:37;;;;;;;13.07;5.73;;;;;;;20.48;49.46;101434.88;5017382;28;20223;-68
2023/05/26 08:39:03;;;;;;;12.10;5.17;;;;;;;20.50;50.39;101432.16;5040665;28;20664;-70
2023/05/26 08:41:39;;;;;;;16.23;5.17;;;;;;;20.81;49.67;101438.06;5037774;28;20346;-70
2023/05/26 08:44:07;;;;;;;11.67;5.23;;;;;;;20.65;49.27;101427.50;5030984;28;20202;-72
2023/05/26 08:46:35;;;;;;;12.60;5.47;;;;;;;20.92;48.51;101422.69;5039241;28;20706;-69
2023/05/26 08:49:02;;;;;;;13.73;5.32;;;;;;;21.04;48.51;101427.91;5047491;28;20203;-71
2023/05/26 08:51:32;;;;;;;11.95;5.55;;;;;;;21.32;48.33;101419.50;5047593;28;20197;-71
2023/05/26 08:53:59;;;;;;;9.85;5.70;;;;;;;21.49;47.94;101420.13;5049503;28;20599;-69
2023/05/26 08:56:25;;;;;;;12.18;5.63;;;;;;;21.21;46.96;101423.22;5045410;28;21734;-69
2023/05/26 08:58:53;;;;;;;10.75;5.32;;;;;;;20.86;46.67;101433.56;5043885;28;20202;-69
2023/05/26 09:01:19;;;;;;;9.87;5.17;;;;;;;20.73;47.73;101423.81;5035004;28;20200;-69
2023/05/26 09:03:46;;;;;;;12.65;5.22;;;;;;;20.75;48.03;101420.19;5035977;28;20206;-69
2023/05/26 09:06:12;;;;;;;11.95;5.35;;;;;;;20.82;47.54;101424.63;5046282;28;20218;-69
2023/05/26 09:08:39;;;;;;;9.38;4.68;;;;;;;21.26;46.90;101418.69;5040191;28;20619;-71
2023/05/26 09:11:23;;;;;;;11.32;5.00;;;;;;;21.72;46.11;101411.72;5033033;28;20687;-70
2023/05/26 09:13:56;;;;;;;13.48;5.40;;;;;;;22.05;44.33;101426.47;5038926;28;20203;-69
2023/05/26 09:16:27;;;;;;;11.25;5.30;;;;;;;21.85;42.71;101422.25;5040625;28;20218;-69
2023/05/26 09:18:58;;;;;;;10.18;5.10;;;;;;;21.60;43.75;101428.94;5037546;28;20452;-68
2023/05/26 09:21:28;;;;;;;15.75;5.55;;;;;;;21.21;44.54;101435.78;5034741;28;20282;-68
2023/05/26 09:23:56;;;;;;;8.85;4.28;;;;;;;21.34;44.50;101431.16;5039492;28;20207;-68
2023/05/26 09:26:26;;;;;;;10.10;4.32;;;;;;;21.52;43.74;101422.78;5037525;28;20310;-68
2023/05/26 09:28:53;;;;;;;10.02;4.68;;;;;;;21.24;44.27;101428.59;5040269;28;20199;-68
2023/05/26 09:31:19;;;;;;;12.00;5.45;;;;;;;20.83;45.01;101436.28;5041795;28;20206;-68
2023/05/26 09:33:46;;;;;;;7.22;3.78;;;;;;;20.36;46.08;101424.19;5039709;28;20199;-69
2023/05/26 09:36:15;;;;;;;10.30;4.40;;;;;;;20.21;47.17;101419.88;5024319;28;20789;-68
2023/05/26 09:38:43;;;;;;;12.18;4.45;;;;;;;20.20;47.45;101414.50;5046128;28;20721;-69
2023/05/26 09:41:09;;;;;;;10.90;4.60;;;;;;;20.30;46.43;101424.25;5040527;28;20207;-68
2023/05/26 09:43:36;;;;;;;8.52;4.43;;;;;;;20.22;47.04;101420.75;5044385;28;20219;-68
2023/05/26 09:46:08;;;;;;;11.43;4.00;;;;;;;20.41;45.48;101434.94;5043674;28;20728;-67
2023/05/26 09:48:36;;;;;;;9.43;4.30;;;;;;;20.26;46.28;101425.19;5040796;28;20202;-69
2023/05/26 09:51:03;;;;;;;7.80;4.07;;;;;;;20.21;45.98;101427.94;5036475;28;20254;-70
2023/05/26 09:53:30;;;;;;;11.30;4.60;;;;;;;20.43;45.40;101428.66;5039599;28;20192;-69
2023/05/26 09:56:01;;;;;;;13.23;4.68;;;;;;;20.61;44.52;101428.44;5032143;28;20223;-68
2023/05/26 09:58:28;;;;;;;8.63;4.40;;;;;;;20.72;44.51;101424.72;5044097;28;20656;-68
2023/05/26 10:00:56;;;;;;;9.68;4.38;;;;;;;20.79;43.12;101423.75;5046917;28;20191;-68
2023/05/26 10:03:23;;;;;;;10.15;4.57;;;;;;;20.87;43.62;101419.19;5046954;28;20219;-69
2023/05/26 10:05:52;;;;;;;8.90;4.47;;;;;;;21.18;43.64;101411.56;5027648;28;20272;-68
2023/05/26 10:08:20;;;;;;;9.90;4.18;;;;;;;21.06;44.02;101412.63;5050614;28;20195;-68
2023/05/26 10:10:50;;;;;;;8.43;4.15;;;;;;;21.23;44.77;101415.16;5026592;28;20199;-70
2023/05/26 10:13:18;;;;;;;15.82;4.30;;;;;;;20.96;44.39;101417.25;5042653;28;20565;-69
2023/05/26 10:15:45;;;;;;;7.93;4.32;;;;;;;20.88;44.62;101411.09;5046549;28;20562;-68
2023/05/26 10:18:13;;;;;;;9.45;4.25;;;;;;;21.07;44.67;101408.13;5046963;28;20678;-68
2023/05/26 10:20:46;;;;;;;8.05;4.30;;;;;;;21.31;44.16;101407.84;5048671;28;20198;-68
2023/05/26 10:23:31;;;;;;;13.38;3.85;;;;;;;21.33;42.59;101413.22;5048256;28;20265;-68
2023/05/26 10:26:10;;;;;;;9.32;3.80;;;;;;;21.42;42.33;101405.88;5047485;28;20243;-68
2023/05/26 10:29:05;;;;;;;9.43;4.28;;;;;;;21.78;42.94;101401.72;5040708;28;20199;-69
2023/05/26 10:31:34;;;;;;;9.52;4.15;;;;;;;21.85;41.71;101399.78;5048327;28;20686;-68
2023/05/26 10:34:12;;;;;;;11.15;3.95;;;;;;;21.89;42.04;101397.00;5048791;28;20195;-68
2023/05/26 10:36:38;;;;;;;11.40;4.05;;;;;;;21.71;41.62;101396.44;5043908;28;20272;-68
2023/05/26 10:39:12;;;;;;;9.95;4.15;;;;;;;21.81;42.26;101395.38;5050305;28;20282;-68
2023/05/26 10:41:48;;;;;;;9.35;4.43;;;;;;;21.87;41.30;101404.25;5045699;28;20198;-68
2023/05/26 10:44:40;;;;;;;7.40;3.88;;;;;;;21.79;41.38;101395.41;5045560;28;20214;-69
2023/05/26 10:47:12;;;;;;;10.18;3.90;;;;;;;21.96;41.75;101397.78;5047455;28;20302;-70
2023/05/26 10:49:38;;;;;;;8.55;4.25;;;;;;;22.32;41.59;101396.28;5052613;28;20204;-71
2023/05/26 10:52:13;;;;;;;7.45;4.07;;;;;;;22.22;40.84;101394.69;5043894;28;20195;-72
2023/05/26 10:54:42;;;;;;;11.52;4.10;;;;;;;22.18;40.31;101399.25;5048165;28;20201;-71
2023/05/26 10:57:31;;;;;;;10.50;4.28;;;;;;;22.33;40.26;101395.34;5068499;23;20318;-70
2023/05/26 11:00:16;;;;;;;8.90;4.22;;;;;;;22.12;40.55;101390.38;5046564;28;20230;-72
2023/05/26 11:02:43;;;;;;;10.20;4.07;;;;;;;22.10;40.85;101393.09;5049233;28;20772;-70
2023/05/26 11:05:28;;;;;;;10.88;4.35;;;;;;;22.98;40.05;101392.28;5046582;28;20209;-68
2023/05/26 11:07:55;;;;;;;9.13;4.55;;;;;;;22.99;38.77;101394.06;5028857;28;20223;-69
2023/05/26 11:10:21;;;;;;;9.18;3.78;;;;;;;22.69;38.36;101395.56;5025382;28;20199;-70
2023/05/26 11:12:54;;;;;;;8.30;4.55;;;;;;;22.79;39.63;101387.22;5026373;28;20330;-68
2023/05/26 11:15:25;;;;;;;9.05;4.30;;;;;;;22.62;39.29;101396.59;5028192;28;20199;-68
2023/05/26 11:18:02;;;;;;;9.18;3.70;;;;;;;22.49;39.14;101387.88;5024447;28;20203;-67
2023/05/26 11:20:29;;;;;;;8.93;3.95;;;;;;;22.70;39.23;101394.63;5027733;28;20191;-71
2023/05/26 11:22:56;;;;;;;11.43;4.68;;;;;;;22.19;39.85;101379.44;5026080;28;20228;-70